sensor_id;sensor_type;location;lat;lon;timestamp;temperature;humidity
12123;DHT22;6125;59.628;17.852;2023-09-07T00:01:57;12.00;99.90
12123;DHT22;6125;59.628;17.852;2023-09-07T00:04:24;11.90;99.90
12123;DHT22;6125;59.628;17.852;2023-09-07T00:06:51;11.90;99.90
12123;DHT22;6125;59.628;17.852;2023-09-07T00:09:18;11.90;99.90
12123;DHT22;6125;59.628;17.852;2023-09-07T00:11:47;11.90;99.90
12123;DHT22;6125;59.628;17.852;2023-09-07T00:14:15;11.90;99.90
12123;DHT22;6125;59.628;17.852;2023-09-07T00:16:43;11.90;99.90
12123;DHT22;6125;59.628;17.852;2023-09-07T00:19:10;11.80;99.90
12123;DHT22;6125;59.628;17.852;2023-09-07T00:21:37;11.70;99.90
12123;DHT22;6125;59.628;17.852;2023-09-07T00:24:05;11.70;99.90
12123;DHT22;6125;59.628;17.852;2023-09-07T00:26:32;11.60;99.90
12123;DHT22;6125;59.628;17.852;2023-09-07T00:28:59;11.60;99.90
12123;DHT22;6125;59.628;17.852;2023-09-07T00:31:26;11.50;99.90
12123;DHT22;6125;59.628;17.852;2023-09-07T00:33:54;11.40;99.90
12123;DHT22;6125;59.628;17.852;2023-09-07T00:36:21;11.40;99.90
12123;DHT22;6125;59.628;17.852;2023-09-07T00:38:48;11.30;99.90
12123;DHT22;6125;59.628;17.852;2023-09-07T00:41:16;11.30;99.90
12123;DHT22;6125;59.628;17.852;2023-09-07T00:43:43;11.30;99.90
12123;DHT22;6125;59.628;17.852;2023-09-07T00:46:10;11.30;99.90
12123;DHT22;6125;59.628;17.852;2023-09-07T00:48:37;11.20;99.90
12123;DHT22;6125;59.628;17.852;2023-09-07T00:51:07;11.20;99.90
12123;DHT22;6125;59.628;17.852;2023-09-07T00:53:34;11.10;99.90
12123;DHT22;6125;59.628;17.852;2023-09-07T00:56:02;11.10;99.90
12123;DHT22;6125;59.628;17.852;2023-09-07T00:58:29;11.00;99.90
12123;DHT22;6125;59.628;17.852;2023-09-07T01:00:57;11.00;99.90
12123;DHT22;6125;59.628;17.852;2023-09-07T01:03:24;11.00;99.90
12123;DHT22;6125;59.628;17.852;2023-09-07T01:06:06;11.00;99.90
12123;DHT22;6125;59.628;17.852;2023-09-07T01:08:40;11.00;99.90
12123;DHT22;6125;59.628;17.852;2023-09-07T01:11:15;11.00;99.90
12123;DHT22;6125;59.628;17.852;2023-09-07T01:13:42;11.00;99.90
12123;DHT22;6125;59.628;17.852;2023-09-07T01:16:10;10.90;99.90
12123;DHT22;6125;59.628;17.852;2023-09-07T01:18:38;10.90;99.90
12123;DHT22;6125;59.628;17.852;2023-09-07T01:21:06;10.80;99.90
12123;DHT22;6125;59.628;17.852;2023-09-07T01:23:36;10.80;99.90
12123;DHT22;6125;59.628;17.852;2023-09-07T01:26:03;10.70;99.90
12123;DHT22;6125;59.628;17.852;2023-09-07T01:28:30;10.70;99.90
12123;DHT22;6125;59.628;17.852;2023-09-07T01:30:58;10.60;99.90
12123;DHT22;6125;59.628;17.852;2023-09-07T01:33:25;10.60;99.90
12123;DHT22;6125;59.628;17.852;2023-09-07T01:35:52;10.60;99.90
12123;DHT22;6125;59.628;17.852;2023-09-07T01:38:19;10.60;99.90
12123;DHT22;6125;59.628;17.852;2023-09-07T01:40:47;10.60;99.90
12123;DHT22;6125;59.628;17.852;2023-09-07T01:43:14;10.50;99.90
12123;DHT22;6125;59.628;17.852;2023-09-07T01:45:41;10.50;99.90
12123;DHT22;6125;59.628;17.852;2023-09-07T01:48:10;10.50;99.90
12123;DHT22;6125;59.628;17.852;2023-09-07T01:50:37;10.50;99.90
12123;DHT22;6125;59.628;17.852;2023-09-07T01:53:04;10.50;99.90
12123;DHT22;6125;59.628;17.852;2023-09-07T01:55:31;10.60;99.90
12123;DHT22;6125;59.628;17.852;2023-09-07T01:58:00;10.70;99.90
12123;DHT22;6125;59.628;17.852;2023-09-07T02:00:36;10.60;99.90
12123;DHT22;6125;59.628;17.852;2023-09-07T02:03:04;10.60;99.90
12123;DHT22;6125;59.628;17.852;2023-09-07T02:05:31;10.60;99.90
12123;DHT22;6125;59.628;17.852;2023-09-07T02:07:59;10.70;99.90
12123;DHT22;6125;59.628;17.852;2023-09-07T02:10:26;10.70;99.90
12123;DHT22;6125;59.628;17.852;2023-09-07T02:12:53;10.70;99.90
12123;DHT22;6125;59.628;17.852;2023-09-07T02:15:23;10.70;99.90
12123;DHT22;6125;59.628;17.852;2023-09-07T02:17:50;10.70;99.90
12123;DHT22;6125;59.628;17.852;2023-09-07T02:20:18;10.70;99.90
12123;DHT22;6125;59.628;17.852;2023-09-07T02:22:45;10.70;99.90
12123;DHT22;6125;59.628;17.852;2023-09-07T02:25:19;10.70;99.90
12123;DHT22;6125;59.628;17.852;2023-09-07T02:27:46;10.70;99.90
12123;DHT22;6125;59.628;17.852;2023-09-07T02:30:13;10.70;99.90
12123;DHT22;6125;59.628;17.852;2023-09-07T02:32:42;10.60;99.90
12123;DHT22;6125;59.628;17.852;2023-09-07T02:35:09;10.50;99.90
12123;DHT22;6125;59.628;17.852;2023-09-07T02:37:36;10.40;99.90
12123;DHT22;6125;59.628;17.852;2023-09-07T02:40:04;10.40;99.90
12123;DHT22;6125;59.628;17.852;2023-09-07T02:42:33;10.30;99.90
12123;DHT22;6125;59.628;17.852;2023-09-07T02:45:00;10.30;99.90
12123;DHT22;6125;59.628;17.852;2023-09-07T02:47:27;10.30;99.90
12123;DHT22;6125;59.628;17.852;2023-09-07T02:49:55;10.40;99.90
12123;DHT22;6125;59.628;17.852;2023-09-07T02:52:22;10.40;99.90
12123;DHT22;6125;59.628;17.852;2023-09-07T02:54:49;10.40;99.90
12123;DHT22;6125;59.628;17.852;2023-09-07T02:57:16;10.40;99.90
12123;DHT22;6125;59.628;17.852;2023-09-07T02:59:43;10.40;99.90
12123;DHT22;6125;59.628;17.852;2023-09-07T03:02:11;10.50;99.90
12123;DHT22;6125;59.628;17.852;2023-09-07T03:04:38;10.50;99.90
12123;DHT22;6125;59.628;17.852;2023-09-07T03:07:06;10.50;99.90
12123;DHT22;6125;59.628;17.852;2023-09-07T03:09:34;10.50;99.90
12123;DHT22;6125;59.628;17.852;2023-09-07T03:12:01;10.50;99.90
12123;DHT22;6125;59.628;17.852;2023-09-07T03:14:29;10.60;99.90
12123;DHT22;6125;59.628;17.852;2023-09-07T03:16:56;10.60;99.90
12123;DHT22;6125;59.628;17.852;2023-09-07T03:19:23;10.60;99.90
12123;DHT22;6125;59.628;17.852;2023-09-07T03:21:50;10.70;99.90
12123;DHT22;6125;59.628;17.852;2023-09-07T03:24:18;10.70;99.90
12123;DHT22;6125;59.628;17.852;2023-09-07T03:26:46;10.70;99.90
12123;DHT22;6125;59.628;17.852;2023-09-07T03:29:13;10.80;99.90
12123;DHT22;6125;59.628;17.852;2023-09-07T03:31:40;10.90;99.90
12123;DHT22;6125;59.628;17.852;2023-09-07T03:34:07;10.90;99.90
12123;DHT22;6125;59.628;17.852;2023-09-07T03:36:34;11.00;99.90
12123;DHT22;6125;59.628;17.852;2023-09-07T03:39:02;11.00;99.90
12123;DHT22;6125;59.628;17.852;2023-09-07T03:41:30;11.10;99.90
12123;DHT22;6125;59.628;17.852;2023-09-07T03:43:57;11.10;99.90
12123;DHT22;6125;59.628;17.852;2023-09-07T03:46:24;11.30;99.90
12123;DHT22;6125;59.628;17.852;2023-09-07T03:48:51;11.40;99.90
12123;DHT22;6125;59.628;17.852;2023-09-07T03:51:18;11.50;99.90
12123;DHT22;6125;59.628;17.852;2023-09-07T03:53:45;11.60;99.90
12123;DHT22;6125;59.628;17.852;2023-09-07T03:56:12;11.60;99.90
12123;DHT22;6125;59.628;17.852;2023-09-07T03:58:41;11.70;99.90
12123;DHT22;6125;59.628;17.852;2023-09-07T04:01:08;11.70;99.90
12123;DHT22;6125;59.628;17.852;2023-09-07T04:03:35;11.70;99.90
12123;DHT22;6125;59.628;17.852;2023-09-07T04:06:02;11.80;99.90
12123;DHT22;6125;59.628;17.852;2023-09-07T04:08:30;11.80;99.90
12123;DHT22;6125;59.628;17.852;2023-09-07T04:10:57;11.90;99.90
12123;DHT22;6125;59.628;17.852;2023-09-07T04:13:24;11.90;99.90
12123;DHT22;6125;59.628;17.852;2023-09-07T04:15:52;12.00;99.90
12123;DHT22;6125;59.628;17.852;2023-09-07T04:18:19;12.00;99.90
12123;DHT22;6125;59.628;17.852;2023-09-07T04:20:46;12.10;99.90
12123;DHT22;6125;59.628;17.852;2023-09-07T04:23:13;12.20;99.90
12123;DHT22;6125;59.628;17.852;2023-09-07T04:25:41;12.20;99.90
12123;DHT22;6125;59.628;17.852;2023-09-07T04:28:08;12.30;99.90
12123;DHT22;6125;59.628;17.852;2023-09-07T04:30:37;12.30;99.90
12123;DHT22;6125;59.628;17.852;2023-09-07T04:33:06;12.40;99.90
12123;DHT22;6125;59.628;17.852;2023-09-07T04:35:33;12.40;99.90
12123;DHT22;6125;59.628;17.852;2023-09-07T04:38:00;12.50;99.90
12123;DHT22;6125;59.628;17.852;2023-09-07T04:40:27;12.50;99.90
12123;DHT22;6125;59.628;17.852;2023-09-07T04:42:54;12.60;99.90
12123;DHT22;6125;59.628;17.852;2023-09-07T04:45:21;12.70;99.90
12123;DHT22;6125;59.628;17.852;2023-09-07T04:47:49;12.80;99.90
12123;DHT22;6125;59.628;17.852;2023-09-07T04:50:18;12.80;99.90
12123;DHT22;6125;59.628;17.852;2023-09-07T04:52:45;12.90;99.90
12123;DHT22;6125;59.628;17.852;2023-09-07T04:55:12;12.90;99.90
12123;DHT22;6125;59.628;17.852;2023-09-07T04:57:39;13.00;99.90
12123;DHT22;6125;59.628;17.852;2023-09-07T05:00:07;13.00;99.90
12123;DHT22;6125;59.628;17.852;2023-09-07T05:02:35;13.10;99.90
12123;DHT22;6125;59.628;17.852;2023-09-07T05:05:06;13.10;99.90
12123;DHT22;6125;59.628;17.852;2023-09-07T05:07:35;13.10;99.90
12123;DHT22;6125;59.628;17.852;2023-09-07T05:10:02;13.20;99.90
12123;DHT22;6125;59.628;17.852;2023-09-07T05:12:29;13.20;99.90
12123;DHT22;6125;59.628;17.852;2023-09-07T05:14:56;13.20;99.90
12123;DHT22;6125;59.628;17.852;2023-09-07T05:17:25;13.20;99.90
12123;DHT22;6125;59.628;17.852;2023-09-07T05:19:52;13.30;99.90
12123;DHT22;6125;59.628;17.852;2023-09-07T05:22:19;13.40;99.90
12123;DHT22;6125;59.628;17.852;2023-09-07T05:24:49;13.40;99.90
12123;DHT22;6125;59.628;17.852;2023-09-07T05:27:16;13.50;99.90
12123;DHT22;6125;59.628;17.852;2023-09-07T05:29:43;13.60;99.90
12123;DHT22;6125;59.628;17.852;2023-09-07T05:32:10;13.70;99.90
12123;DHT22;6125;59.628;17.852;2023-09-07T05:34:37;13.80;99.90
12123;DHT22;6125;59.628;17.852;2023-09-07T05:37:04;13.90;99.90
12123;DHT22;6125;59.628;17.852;2023-09-07T05:39:31;14.00;99.90
12123;DHT22;6125;59.628;17.852;2023-09-07T05:42:00;14.00;99.90
12123;DHT22;6125;59.628;17.852;2023-09-07T05:44:27;14.10;99.90
12123;DHT22;6125;59.628;17.852;2023-09-07T05:46:54;14.20;99.90
12123;DHT22;6125;59.628;17.852;2023-09-07T05:49:21;14.30;99.90
12123;DHT22;6125;59.628;17.852;2023-09-07T05:51:48;14.40;99.90
12123;DHT22;6125;59.628;17.852;2023-09-07T05:54:15;14.60;99.90
12123;DHT22;6125;59.628;17.852;2023-09-07T05:56:42;14.80;99.90
12123;DHT22;6125;59.628;17.852;2023-09-07T05:59:10;15.00;99.90
12123;DHT22;6125;59.628;17.852;2023-09-07T06:01:38;15.20;99.90
12123;DHT22;6125;59.628;17.852;2023-09-07T06:04:06;15.30;99.90
12123;DHT22;6125;59.628;17.852;2023-09-07T06:06:34;15.50;99.90
12123;DHT22;6125;59.628;17.852;2023-09-07T06:09:01;15.60;99.90
12123;DHT22;6125;59.628;17.852;2023-09-07T06:11:29;15.70;99.90
12123;DHT22;6125;59.628;17.852;2023-09-07T06:13:57;15.80;99.90
12123;DHT22;6125;59.628;17.852;2023-09-07T06:16:26;16.00;99.90
12123;DHT22;6125;59.628;17.852;2023-09-07T06:18:53;16.00;99.90
12123;DHT22;6125;59.628;17.852;2023-09-07T06:21:20;16.10;99.90
12123;DHT22;6125;59.628;17.852;2023-09-07T06:23:47;16.10;99.90
12123;DHT22;6125;59.628;17.852;2023-09-07T06:26:15;16.20;99.90
12123;DHT22;6125;59.628;17.852;2023-09-07T06:28:43;16.20;99.90
12123;DHT22;6125;59.628;17.852;2023-09-07T06:31:10;16.20;99.90
12123;DHT22;6125;59.628;17.852;2023-09-07T06:33:39;16.30;99.90
12123;DHT22;6125;59.628;17.852;2023-09-07T06:36:06;16.30;99.90
12123;DHT22;6125;59.628;17.852;2023-09-07T06:38:33;16.30;99.90
12123;DHT22;6125;59.628;17.852;2023-09-07T06:41:00;16.40;99.90
12123;DHT22;6125;59.628;17.852;2023-09-07T06:43:27;16.50;99.90
12123;DHT22;6125;59.628;17.852;2023-09-07T06:46:02;16.50;99.90
12123;DHT22;6125;59.628;17.852;2023-09-07T06:48:29;16.60;99.90
12123;DHT22;6125;59.628;17.852;2023-09-07T06:51:02;16.60;99.90
12123;DHT22;6125;59.628;17.852;2023-09-07T06:53:30;16.70;99.90
12123;DHT22;6125;59.628;17.852;2023-09-07T06:55:57;16.80;99.90
12123;DHT22;6125;59.628;17.852;2023-09-07T06:58:25;16.80;99.90
12123;DHT22;6125;59.628;17.852;2023-09-07T07:00:52;16.90;99.90
12123;DHT22;6125;59.628;17.852;2023-09-07T07:03:19;17.00;99.90
12123;DHT22;6125;59.628;17.852;2023-09-07T07:05:46;17.00;99.90
12123;DHT22;6125;59.628;17.852;2023-09-07T07:08:14;17.10;99.90
12123;DHT22;6125;59.628;17.852;2023-09-07T07:10:42;17.00;99.90
12123;DHT22;6125;59.628;17.852;2023-09-07T07:13:09;17.10;99.90
12123;DHT22;6125;59.628;17.852;2023-09-07T07:15:36;17.10;99.90
12123;DHT22;6125;59.628;17.852;2023-09-07T07:18:03;17.10;99.90
12123;DHT22;6125;59.628;17.852;2023-09-07T07:20:34;17.20;99.90
12123;DHT22;6125;59.628;17.852;2023-09-07T07:23:01;17.30;99.90
12123;DHT22;6125;59.628;17.852;2023-09-07T07:25:30;17.30;99.90
12123;DHT22;6125;59.628;17.852;2023-09-07T07:27:59;17.40;99.90
12123;DHT22;6125;59.628;17.852;2023-09-07T07:30:27;17.40;99.90
12123;DHT22;6125;59.628;17.852;2023-09-07T07:32:55;17.50;99.90
12123;DHT22;6125;59.628;17.852;2023-09-07T07:35:22;17.60;99.90
12123;DHT22;6125;59.628;17.852;2023-09-07T07:37:55;17.70;99.90
12123;DHT22;6125;59.628;17.852;2023-09-07T07:40:23;17.80;99.90
12123;DHT22;6125;59.628;17.852;2023-09-07T07:42:51;17.90;99.90
12123;DHT22;6125;59.628;17.852;2023-09-07T07:45:19;18.00;99.90
12123;DHT22;6125;59.628;17.852;2023-09-07T07:47:48;18.10;99.90
12123;DHT22;6125;59.628;17.852;2023-09-07T07:50:15;18.10;99.90
12123;DHT22;6125;59.628;17.852;2023-09-07T07:52:43;18.10;99.90
12123;DHT22;6125;59.628;17.852;2023-09-07T07:55:10;18.10;99.90
12123;DHT22;6125;59.628;17.852;2023-09-07T07:57:38;18.10;99.90
12123;DHT22;6125;59.628;17.852;2023-09-07T08:00:07;18.10;99.90
12123;DHT22;6125;59.628;17.852;2023-09-07T08:02:34;18.00;99.90
12123;DHT22;6125;59.628;17.852;2023-09-07T08:05:01;18.00;99.90
12123;DHT22;6125;59.628;17.852;2023-09-07T08:07:28;18.10;99.90
12123;DHT22;6125;59.628;17.852;2023-09-07T08:09:55;18.00;99.90
12123;DHT22;6125;59.628;17.852;2023-09-07T08:12:23;18.10;99.90
12123;DHT22;6125;59.628;17.852;2023-09-07T08:14:50;18.10;99.90
12123;DHT22;6125;59.628;17.852;2023-09-07T08:17:18;18.20;99.90
12123;DHT22;6125;59.628;17.852;2023-09-07T08:19:46;18.20;99.90
12123;DHT22;6125;59.628;17.852;2023-09-07T08:22:14;18.20;99.90
12123;DHT22;6125;59.628;17.852;2023-09-07T08:24:42;18.30;99.90
12123;DHT22;6125;59.628;17.852;2023-09-07T08:27:09;18.30;99.90
12123;DHT22;6125;59.628;17.852;2023-09-07T08:29:37;18.40;99.90
12123;DHT22;6125;59.628;17.852;2023-09-07T08:32:05;18.40;99.90
12123;DHT22;6125;59.628;17.852;2023-09-07T08:34:33;18.50;99.90
12123;DHT22;6125;59.628;17.852;2023-09-07T08:37:05;18.60;99.90
12123;DHT22;6125;59.628;17.852;2023-09-07T08:39:34;18.60;99.90
12123;DHT22;6125;59.628;17.852;2023-09-07T08:42:02;18.70;99.90
12123;DHT22;6125;59.628;17.852;2023-09-07T08:44:30;18.80;99.90
12123;DHT22;6125;59.628;17.852;2023-09-07T08:46:59;18.80;99.90
12123;DHT22;6125;59.628;17.852;2023-09-07T08:49:29;18.90;99.90
12123;DHT22;6125;59.628;17.852;2023-09-07T08:52:01;18.90;99.90
12123;DHT22;6125;59.628;17.852;2023-09-07T08:54:28;19.10;99.90
12123;DHT22;6125;59.628;17.852;2023-09-07T08:56:57;19.20;99.90
12123;DHT22;6125;59.628;17.852;2023-09-07T08:59:24;19.40;99.90
12123;DHT22;6125;59.628;17.852;2023-09-07T09:01:56;19.50;99.90
12123;DHT22;6125;59.628;17.852;2023-09-07T09:04:24;19.70;99.90
12123;DHT22;6125;59.628;17.852;2023-09-07T09:06:51;19.80;99.90
12123;DHT22;6125;59.628;17.852;2023-09-07T09:09:24;20.00;99.90
12123;DHT22;6125;59.628;17.852;2023-09-07T09:11:51;20.00;99.90
12123;DHT22;6125;59.628;17.852;2023-09-07T09:14:18;20.10;99.90
12123;DHT22;6125;59.628;17.852;2023-09-07T09:16:50;19.90;99.90
12123;DHT22;6125;59.628;17.852;2023-09-07T09:19:17;19.90;99.90
12123;DHT22;6125;59.628;17.852;2023-09-07T09:21:45;19.80;99.90
12123;DHT22;6125;59.628;17.852;2023-09-07T09:24:12;19.80;99.90
12123;DHT22;6125;59.628;17.852;2023-09-07T09:26:42;19.90;99.90
12123;DHT22;6125;59.628;17.852;2023-09-07T09:29:09;20.00;99.90
12123;DHT22;6125;59.628;17.852;2023-09-07T09:31:37;20.00;99.90
12123;DHT22;6125;59.628;17.852;2023-09-07T09:34:04;20.00;99.90
12123;DHT22;6125;59.628;17.852;2023-09-07T09:36:35;19.90;99.90
12123;DHT22;6125;59.628;17.852;2023-09-07T09:39:03;19.90;99.90
12123;DHT22;6125;59.628;17.852;2023-09-07T09:41:32;20.00;99.90
12123;DHT22;6125;59.628;17.852;2023-09-07T09:44:03;20.00;99.90
12123;DHT22;6125;59.628;17.852;2023-09-07T09:46:32;20.10;99.90
12123;DHT22;6125;59.628;17.852;2023-09-07T09:48:59;20.10;99.90
12123;DHT22;6125;59.628;17.852;2023-09-07T09:51:27;20.10;99.90
12123;DHT22;6125;59.628;17.852;2023-09-07T09:53:55;20.20;99.90
12123;DHT22;6125;59.628;17.852;2023-09-07T09:56:22;20.30;99.90
12123;DHT22;6125;59.628;17.852;2023-09-07T09:58:51;20.30;99.90
12123;DHT22;6125;59.628;17.852;2023-09-07T10:01:20;20.30;99.90
12123;DHT22;6125;59.628;17.852;2023-09-07T10:03:49;20.30;99.90
12123;DHT22;6125;59.628;17.852;2023-09-07T10:06:24;20.30;99.90
12123;DHT22;6125;59.628;17.852;2023-09-07T10:08:54;20.30;99.90
12123;DHT22;6125;59.628;17.852;2023-09-07T10:11:27;20.40;99.90
12123;DHT22;6125;59.628;17.852;2023-09-07T10:13:59;20.40;99.90
12123;DHT22;6125;59.628;17.852;2023-09-07T10:16:27;20.40;99.90
12123;DHT22;6125;59.628;17.852;2023-09-07T10:18:55;20.50;99.90
12123;DHT22;6125;59.628;17.852;2023-09-07T10:21:25;20.50;99.90
12123;DHT22;6125;59.628;17.852;2023-09-07T10:23:52;20.50;99.90
12123;DHT22;6125;59.628;17.852;2023-09-07T10:26:20;20.70;99.90
12123;DHT22;6125;59.628;17.852;2023-09-07T10:28:58;20.70;99.90
12123;DHT22;6125;59.628;17.852;2023-09-07T10:31:27;20.70;99.90
12123;DHT22;6125;59.628;17.852;2023-09-07T10:33:56;20.80;99.90
12123;DHT22;6125;59.628;17.852;2023-09-07T10:36:24;20.80;99.90
12123;DHT22;6125;59.628;17.852;2023-09-07T10:38:53;20.90;99.90
12123;DHT22;6125;59.628;17.852;2023-09-07T10:41:21;21.00;99.90
12123;DHT22;6125;59.628;17.852;2023-09-07T10:43:50;21.10;99.90
12123;DHT22;6125;59.628;17.852;2023-09-07T10:46:19;21.20;99.90
12123;DHT22;6125;59.628;17.852;2023-09-07T10:48:50;21.40;99.90
12123;DHT22;6125;59.628;17.852;2023-09-07T10:51:17;21.50;99.90
12123;DHT22;6125;59.628;17.852;2023-09-07T10:53:45;21.70;99.90
12123;DHT22;6125;59.628;17.852;2023-09-07T10:56:12;21.90;99.90
12123;DHT22;6125;59.628;17.852;2023-09-07T10:58:40;22.20;99.90
12123;DHT22;6125;59.628;17.852;2023-09-07T11:01:08;22.50;99.90
12123;DHT22;6125;59.628;17.852;2023-09-07T11:03:37;22.70;99.90
12123;DHT22;6125;59.628;17.852;2023-09-07T11:06:09;22.90;99.90
12123;DHT22;6125;59.628;17.852;2023-09-07T11:08:37;23.00;99.90
12123;DHT22;6125;59.628;17.852;2023-09-07T11:11:05;23.10;99.90
12123;DHT22;6125;59.628;17.852;2023-09-07T11:13:32;23.20;99.90
12123;DHT22;6125;59.628;17.852;2023-09-07T11:16:00;23.40;99.90
12123;DHT22;6125;59.628;17.852;2023-09-07T11:18:27;23.40;99.90
12123;DHT22;6125;59.628;17.852;2023-09-07T11:20:56;23.30;99.90
12123;DHT22;6125;59.628;17.852;2023-09-07T11:23:24;23.30;99.90
12123;DHT22;6125;59.628;17.852;2023-09-07T11:25:51;23.30;99.90
12123;DHT22;6125;59.628;17.852;2023-09-07T11:28:19;23.20;99.90
12123;DHT22;6125;59.628;17.852;2023-09-07T11:30:51;23.10;99.90
12123;DHT22;6125;59.628;17.852;2023-09-07T11:33:19;23.10;99.90
12123;DHT22;6125;59.628;17.852;2023-09-07T11:35:46;23.20;99.90
12123;DHT22;6125;59.628;17.852;2023-09-07T11:38:14;23.40;99.90
12123;DHT22;6125;59.628;17.852;2023-09-07T11:40:43;23.50;99.90
12123;DHT22;6125;59.628;17.852;2023-09-07T11:43:11;23.50;99.90
12123;DHT22;6125;59.628;17.852;2023-09-07T11:45:39;23.60;99.90
12123;DHT22;6125;59.628;17.852;2023-09-07T11:48:07;23.70;99.90
12123;DHT22;6125;59.628;17.852;2023-09-07T11:50:35;23.80;99.90
12123;DHT22;6125;59.628;17.852;2023-09-07T11:53:03;23.90;99.90
12123;DHT22;6125;59.628;17.852;2023-09-07T11:55:30;23.80;99.90
12123;DHT22;6125;59.628;17.852;2023-09-07T11:57:59;23.60;99.90
12123;DHT22;6125;59.628;17.852;2023-09-07T12:00:26;23.60;99.90
12123;DHT22;6125;59.628;17.852;2023-09-07T12:02:55;23.50;99.90
12123;DHT22;6125;59.628;17.852;2023-09-07T12:05:22;23.70;99.90
12123;DHT22;6125;59.628;17.852;2023-09-07T12:07:50;23.80;99.90
12123;DHT22;6125;59.628;17.852;2023-09-07T12:10:17;23.80;99.90
12123;DHT22;6125;59.628;17.852;2023-09-07T12:12:44;23.80;99.90
12123;DHT22;6125;59.628;17.852;2023-09-07T12:15:12;23.70;99.90
12123;DHT22;6125;59.628;17.852;2023-09-07T12:17:40;23.70;99.90
12123;DHT22;6125;59.628;17.852;2023-09-07T12:20:08;23.80;99.90
12123;DHT22;6125;59.628;17.852;2023-09-07T12:22:36;23.80;99.90
12123;DHT22;6125;59.628;17.852;2023-09-07T12:25:04;23.90;99.90
12123;DHT22;6125;59.628;17.852;2023-09-07T12:27:33;24.10;99.90
12123;DHT22;6125;59.628;17.852;2023-09-07T12:30:00;24.30;99.90
12123;DHT22;6125;59.628;17.852;2023-09-07T12:32:29;24.50;99.90
12123;DHT22;6125;59.628;17.852;2023-09-07T12:34:56;24.50;99.90
12123;DHT22;6125;59.628;17.852;2023-09-07T12:37:23;24.50;99.90
12123;DHT22;6125;59.628;17.852;2023-09-07T12:39:50;24.50;99.90
12123;DHT22;6125;59.628;17.852;2023-09-07T12:42:24;24.50;99.90
12123;DHT22;6125;59.628;17.852;2023-09-07T12:44:51;24.60;99.90
12123;DHT22;6125;59.628;17.852;2023-09-07T12:47:18;24.60;99.90
12123;DHT22;6125;59.628;17.852;2023-09-07T12:49:46;24.70;99.90
12123;DHT22;6125;59.628;17.852;2023-09-07T12:52:13;24.80;99.90
12123;DHT22;6125;59.628;17.852;2023-09-07T12:54:40;25.00;99.90
12123;DHT22;6125;59.628;17.852;2023-09-07T12:57:07;25.20;99.90
12123;DHT22;6125;59.628;17.852;2023-09-07T12:59:34;25.10;99.90
12123;DHT22;6125;59.628;17.852;2023-09-07T13:02:01;25.00;99.90
12123;DHT22;6125;59.628;17.852;2023-09-07T13:04:29;24.80;99.90
12123;DHT22;6125;59.628;17.852;2023-09-07T13:06:57;24.50;99.90
12123;DHT22;6125;59.628;17.852;2023-09-07T13:09:24;24.40;99.90
12123;DHT22;6125;59.628;17.852;2023-09-07T13:11:51;24.40;99.90
12123;DHT22;6125;59.628;17.852;2023-09-07T13:14:18;24.40;99.90
12123;DHT22;6125;59.628;17.852;2023-09-07T13:16:45;24.40;99.90
12123;DHT22;6125;59.628;17.852;2023-09-07T13:19:12;24.50;99.90
12123;DHT22;6125;59.628;17.852;2023-09-07T13:21:39;24.50;99.90
12123;DHT22;6125;59.628;17.852;2023-09-07T13:24:07;24.60;99.90
12123;DHT22;6125;59.628;17.852;2023-09-07T13:26:36;24.70;99.90
12123;DHT22;6125;59.628;17.852;2023-09-07T13:29:03;24.80;99.90
12123;DHT22;6125;59.628;17.852;2023-09-07T13:31:30;24.80;99.90
12123;DHT22;6125;59.628;17.852;2023-09-07T13:33:57;24.90;99.90
12123;DHT22;6125;59.628;17.852;2023-09-07T13:36:24;24.90;99.90
12123;DHT22;6125;59.628;17.852;2023-09-07T13:38:51;24.90;99.90
12123;DHT22;6125;59.628;17.852;2023-09-07T13:41:23;25.00;99.90
12123;DHT22;6125;59.628;17.852;2023-09-07T13:43:50;24.90;99.90
12123;DHT22;6125;59.628;17.852;2023-09-07T13:46:19;24.90;99.90
12123;DHT22;6125;59.628;17.852;2023-09-07T13:48:46;24.80;99.90
12123;DHT22;6125;59.628;17.852;2023-09-07T13:51:13;24.80;99.90
12123;DHT22;6125;59.628;17.852;2023-09-07T13:53:40;24.60;99.90
12123;DHT22;6125;59.628;17.852;2023-09-07T13:56:07;24.60;99.90
12123;DHT22;6125;59.628;17.852;2023-09-07T13:58:36;24.70;99.90
12123;DHT22;6125;59.628;17.852;2023-09-07T14:01:03;24.70;99.90
12123;DHT22;6125;59.628;17.852;2023-09-07T14:03:30;24.80;99.90
12123;DHT22;6125;59.628;17.852;2023-09-07T14:05:57;25.00;99.90
12123;DHT22;6125;59.628;17.852;2023-09-07T14:08:24;25.10;99.90
12123;DHT22;6125;59.628;17.852;2023-09-07T14:10:51;25.10;99.90
12123;DHT22;6125;59.628;17.852;2023-09-07T14:13:19;25.10;99.90
12123;DHT22;6125;59.628;17.852;2023-09-07T14:15:47;25.00;99.90
12123;DHT22;6125;59.628;17.852;2023-09-07T14:18:14;24.80;99.90
12123;DHT22;6125;59.628;17.852;2023-09-07T14:20:41;24.70;99.90
12123;DHT22;6125;59.628;17.852;2023-09-07T14:23:08;24.50;99.90
12123;DHT22;6125;59.628;17.852;2023-09-07T14:25:35;24.50;99.90
12123;DHT22;6125;59.628;17.852;2023-09-07T14:28:04;24.20;99.90
12123;DHT22;6125;59.628;17.852;2023-09-07T14:30:31;24.10;99.90
12123;DHT22;6125;59.628;17.852;2023-09-07T14:32:59;24.00;99.90
12123;DHT22;6125;59.628;17.852;2023-09-07T14:35:26;23.90;99.90
12123;DHT22;6125;59.628;17.852;2023-09-07T14:37:53;23.80;99.90
12123;DHT22;6125;59.628;17.852;2023-09-07T14:40:20;23.70;99.90
12123;DHT22;6125;59.628;17.852;2023-09-07T14:42:49;23.70;99.90
12123;DHT22;6125;59.628;17.852;2023-09-07T14:45:17;23.60;99.90
12123;DHT22;6125;59.628;17.852;2023-09-07T14:47:44;23.60;99.90
12123;DHT22;6125;59.628;17.852;2023-09-07T14:50:12;23.60;99.90
12123;DHT22;6125;59.628;17.852;2023-09-07T14:52:39;23.60;99.90
12123;DHT22;6125;59.628;17.852;2023-09-07T14:55:09;23.60;99.90
12123;DHT22;6125;59.628;17.852;2023-09-07T14:57:37;23.60;99.90
12123;DHT22;6125;59.628;17.852;2023-09-07T15:00:05;23.60;99.90
12123;DHT22;6125;59.628;17.852;2023-09-07T15:02:32;23.50;99.90
12123;DHT22;6125;59.628;17.852;2023-09-07T15:05:00;23.50;99.90
12123;DHT22;6125;59.628;17.852;2023-09-07T15:07:28;23.50;99.90
12123;DHT22;6125;59.628;17.852;2023-09-07T15:09:55;23.40;99.90
12123;DHT22;6125;59.628;17.852;2023-09-07T15:12:22;23.40;99.90
12123;DHT22;6125;59.628;17.852;2023-09-07T15:14:49;23.20;99.90
12123;DHT22;6125;59.628;17.852;2023-09-07T15:17:16;23.20;99.90
12123;DHT22;6125;59.628;17.852;2023-09-07T15:19:44;23.10;99.90
12123;DHT22;6125;59.628;17.852;2023-09-07T15:22:11;23.10;99.90
12123;DHT22;6125;59.628;17.852;2023-09-07T15:24:40;23.00;99.90
12123;DHT22;6125;59.628;17.852;2023-09-07T15:27:08;23.00;99.90
12123;DHT22;6125;59.628;17.852;2023-09-07T15:29:35;22.90;99.90
12123;DHT22;6125;59.628;17.852;2023-09-07T15:32:03;22.90;99.90
12123;DHT22;6125;59.628;17.852;2023-09-07T15:34:31;23.00;99.90